Time;durP1;ratioP1;P1;durP2;ratioP2;P2;SDS_P1;SDS_P2;PMS_P1;PMS_P2;Temp;Humidity;BMP_temperature;BMP_pressure;BME280_temperature;BME280_humidity;BME280_pressure;Samples;Min_cycle;Max_cycle;Signal;HPM_P1;HPM_P2
2022/09/28 00:00:41;;;;;;;34.88;27.15;;;;;;;15.23;73.68;97962.84;1734635;82;20973;-45
2022/09/28 00:03:08;;;;;;;37.20;27.10;;;;;;;15.22;73.60;97972.81;1734620;82;20914;-45
2022/09/28 00:05:35;;;;;;;34.83;27.60;;;;;;;15.16;73.78;97974.50;1734665;82;21057;-45
2022/09/28 00:08:02;;;;;;;33.78;25.40;;;;;;;15.07;73.96;97976.45;1734730;82;21038;-45
2022/09/28 00:10:29;;;;;;;31.35;24.82;;;;;;;15.06;74.08;97972.17;1734323;82;23116;-44
2022/09/28 00:12:59;;;;;;;32.40;26.12;;;;;;;15.08;74.03;97971.16;1734271;82;21017;-44
2022/09/28 00:15:26;;;;;;;35.78;27.32;;;;;;;15.11;74.01;97968.95;1734300;82;20970;-44
2022/09/28 00:17:54;;;;;;;38.55;27.50;;;;;;;15.11;74.07;97970.31;1734373;82;20953;-44
2022/09/28 00:20:21;;;;;;;32.50;24.70;;;;;;;15.11;74.13;97968.95;1734542;82;21018;-44
2022/09/28 00:22:48;;;;;;;34.30;25.75;;;;;;;15.14;74.07;97956.42;1734665;82;21228;-45
2022/09/28 00:25:15;;;;;;;33.83;26.90;;;;;;;15.20;73.88;97958.21;1734521;82;20942;-45
2022/09/28 00:27:45;;;;;;;33.53;27.35;;;;;;;15.26;73.78;97959.08;1734693;82;20926;-44
2022/09/28 00:30:15;;;;;;;37.20;27.60;;;;;;;15.25;73.70;97953.47;1734321;82;21597;-45
2022/09/28 00:32:42;;;;;;;35.25;27.05;;;;;;;15.23;73.69;97956.61;1734726;82;21002;-45
2022/09/28 00:35:09;;;;;;;34.63;25.43;;;;;;;15.22;73.68;97960.53;1734715;82;21339;-45
2022/09/28 00:37:36;;;;;;;33.20;25.10;;;;;;;15.18;73.64;97960.61;1735095;82;21513;-45
2022/09/28 00:40:06;;;;;;;35.13;25.43;;;;;;;15.21;73.58;97957.02;1734766;82;21527;-44
2022/09/28 00:42:32;;;;;;;35.75;27.32;;;;;;;15.26;73.47;97956.34;1735030;82;21037;-44
2022/09/28 00:44:59;;;;;;;34.67;27.22;;;;;;;15.22;73.51;97958.57;1734760;82;21693;-45
2022/09/28 00:47:37;;;;;;;38.65;28.23;;;;;;;15.19;73.49;97958.66;1734661;82;21210;-44
2022/09/28 00:50:17;;;;;;;38.28;26.05;;;;;;;15.15;73.54;97953.25;1734919;82;21511;-44
2022/09/28 00:52:56;;;;;;;31.45;25.23;;;;;;;15.12;73.68;97957.44;1734536;82;21013;-44
2022/09/28 00:55:43;;;;;;;35.05;25.80;;;;;;;15.15;73.65;97952.52;1734677;82;21029;-44
2022/09/28 00:58:13;;;;;;;36.70;27.87;;;;;;;15.18;73.69;97951.06;1734553;82;21543;-44
2022/09/28 01:00:40;;;;;;;37.58;27.82;;;;;;;15.16;73.90;97947.20;1740064;82;21147;-44
2022/09/28 01:03:08;;;;;;;35.90;26.40;;;;;;;15.15;73.84;97941.59;1748657;81;21207;-44
2022/09/28 01:05:35;;;;;;;35.05;24.77;;;;;;;15.18;73.62;97935.27;1748634;81;20996;-44
2022/09/28 01:08:03;;;;;;;33.65;25.82;;;;;;;15.20;73.45;97941.83;1748611;82;20969;-44
2022/09/28 01:10:30;;;;;;;34.35;26.12;;;;;;;15.22;73.35;97942.19;1748846;82;21507;-44
2022/09/28 01:12:57;;;;;;;38.63;27.42;;;;;;;15.21;73.40;97950.80;1745894;81;21200;-45
2022/09/28 01:15:28;;;;;;;35.50;27.82;;;;;;;15.18;73.40;97951.06;1748566;81;21002;-45
2022/09/28 01:18:22;;;;;;;34.35;24.75;;;;;;;15.15;73.37;97949.16;1748747;82;20957;-44
2022/09/28 01:21:02;;;;;;;33.95;26.10;;;;;;;15.13;73.47;97942.01;1748312;82;21004;-44
2022/09/28 01:23:44;;;;;;;35.63;27.00;;;;;;;15.18;73.40;97946.19;1748638;82;21091;-44
2022/09/28 01:26:49;;;;;;;33.75;27.05;;;;;;;15.19;73.50;97942.28;1748769;81;21069;-44
2022/09/28 01:29:30;;;;;;;35.92;26.30;;;;;;;15.18;73.55;97938.00;1748363;81;20957;-44
2022/09/28 01:32:09;;;;;;;34.98;25.57;;;;;;;15.14;73.50;97942.78;1739032;82;21507;-44
2022/09/28 01:34:47;;;;;;;32.67;24.47;;;;;;;15.12;73.38;97937.73;1748471;81;21629;-44
2022/09/28 01:37:16;;;;;;;32.13;24.87;;;;;;;15.17;73.16;97929.63;1747575;82;21013;-45
2022/09/28 01:39:46;;;;;;;34.18;26.05;;;;;;;15.19;73.10;97934.09;1748628;81;21120;-44
2022/09/28 01:42:23;;;;;;;35.83;25.92;;;;;;;15.16;73.15;97932.95;1748550;82;21790;-45
2022/09/28 01:44:52;;;;;;;31.77;22.87;;;;;;;15.14;73.24;97939.45;1748523;82;21036;-45
2022/09/28 01:47:21;;;;;;;35.40;24.25;;;;;;;15.17;73.19;97929.63;1748510;82;21008;-44
2022/09/28 01:49:56;;;;;;;32.83;25.50;;;;;;;15.20;73.10;97921.98;1749099;81;21095;-45
2022/09/28 01:52:34;;;;;;;35.38;27.00;;;;;;;15.21;73.11;97932.45;1744302;82;23116;-44
2022/09/28 01:55:23;;;;;;;32.78;25.57;;;;;;;15.20;73.24;97941.83;1748621;82;21500;-45
2022/09/28 01:58:13;;;;;;;36.23;25.52;;;;;;;15.18;73.23;97937.41;1748808;81;21527;-44
2022/09/28 02:00:43;;;;;;;29.27;23.60;;;;;;;15.13;73.28;97943.37;1745415;81;21025;-45
2022/09/28 02:03:15;;;;;;;33.28;24.57;;;;;;;15.13;73.18;97938.50;1690149;82;21060;-45
2022/09/28 02:05:51;;;;;;;34.00;24.90;;;;;;;15.15;73.11;97944.32;1733121;82;21351;-44
2022/09/28 02:08:35;;;;;;;34.55;26.62;;;;;;;15.11;73.19;97941.65;1734384;82;21729;-44
2022/09/28 02:11:14;;;;;;;33.42;25.45;;;;;;;15.10;73.29;97948.30;1734647;82;21081;-44
2022/09/28 02:13:56;;;;;;;31.80;24.20;;;;;;;15.08;73.47;97949.33;1734727;82;21018;-44
2022/09/28 02:16:45;;;;;;;32.38;23.05;;;;;;;15.07;73.45;97945.05;1734426;82;21269;-44
2022/09/28 02:19:21;;;;;;;31.35;25.08;;;;;;;14.83;73.24;97903.30;1734463;82;21230;-44
2022/09/28 02:21:57;;;;;;;35.23;26.62;;;;;;;15.09;73.10;97946.01;1734512;82;20962;-44
2022/09/28 02:24:35;;;;;;;33.95;26.00;;;;;;;15.03;73.20;97944.96;1700777;82;21013;-44
2022/09/28 02:27:10;;;;;;;;;;;;;;;14.98;73.39;97942.14;1737719;82;20967;-44
2022/09/28 02:29:39;;;;;;;32.25;22.73;;;;;;;14.98;73.58;97938.64;1734614;82;20210;-45
2022/09/28 02:32:05;;;;;;;34.53;24.77;;;;;;;14.94;73.70;97933.86;1734669;82;21086;-45
2022/09/28 02:34:33;;;;;;;31.95;25.25;;;;;;;14.97;73.64;97935.14;1734600;82;20923;-45
2022/09/28 02:37:00;;;;;;;31.62;25.10;;;;;;;14.99;73.75;97938.81;1689055;82;20931;-45
2022/09/28 02:39:27;;;;;;;32.67;24.57;;;;;;;15.00;73.65;97942.50;1734295;82;21077;-45
2022/09/28 02:42:01;;;;;;;34.23;24.40;;;;;;;14.98;73.68;97946.23;1734484;82;21098;-45
2022/09/28 02:44:40;;;;;;;33.30;23.50;;;;;;;14.96;73.70;97951.33;1698482;84;22167;-45
2022/09/28 02:47:27;;;;;;;31.70;23.42;;;;;;;15.00;73.70;97954.78;1699038;84;21036;-44
2022/09/28 02:50:12;;;;;;;35.75;24.72;;;;;;;15.02;73.45;97963.30;1694485;84;21111;-44
2022/09/28 02:53:00;;;;;;;31.52;24.67;;;;;;;14.98;73.57;97959.88;1694674;84;21555;-44
2022/09/28 02:55:39;;;;;;;30.23;22.82;;;;;;;14.93;73.53;97960.38;1694071;84;21109;-44
2022/09/28 02:58:23;;;;;;;31.10;22.73;;;;;;;14.92;73.53;97960.20;1693896;84;21559;-44
2022/09/28 03:01:37;;;;;;;29.55;23.90;;;;;;;14.95;73.50;97955.28;1695360;83;21008;-44
2022/09/28 03:04:17;;;;;;;30.77;25.43;;;;;;;14.96;73.64;97959.52;1710012;83;20963;-44
2022/09/28 03:07:15;;;;;;;31.48;24.67;;;;;;;14.94;73.74;97960.55;1700346;84;21053;-44
2022/09/28 03:09:58;;;;;;;29.00;23.15;;;;;;;14.93;73.69;97952.19;1710181;83;21131;-44
2022/09/28 03:12:28;;;;;;;30.25;23.32;;;;;;;14.90;73.72;97947.58;1700067;84;23207;-44
2022/09/28 03:15:15;;;;;;;34.03;25.37;;;;;;;14.93;73.68;97945.95;1709953;83;21526;-44
2022/09/28 03:17:43;;;;;;;31.12;24.25;;;;;;;14.96;73.79;97951.95;1699718;84;20996;-44
2022/09/28 03:20:10;;;;;;;30.65;24.55;;;;;;;14.94;73.82;97948.27;1709591;83;21041;-45
2022/09/28 03:22:37;;;;;;;29.82;23.27;;;;;;;14.94;73.83;97950.23;1699957;84;21037;-45
2022/09/28 03:25:06;;;;;;;30.72;23.50;;;;;;;14.96;73.80;97949.97;1709671;83;21144;-45
2022/09/28 03:27:33;;;;;;;34.18;24.05;;;;;;;15.01;73.67;97945.97;1672983;84;21060;-45
2022/09/28 03:30:01;;;;;;;32.30;24.18;;;;;;;15.04;73.50;97948.64;1709717;83;21028;-45
2022/09/28 03:32:29;;;;;;;31.85;24.15;;;;;;;15.03;73.32;97951.78;1699931;84;21073;-45
2022/09/28 03:34:55;;;;;;;32.78;24.63;;;;;;;14.97;73.35;97939.83;1709516;83;21032;-44
2022/09/28 03:37:22;;;;;;;26.57;22.02;;;;;;;14.95;73.35;97947.09;1700044;84;21911;-44
2022/09/28 03:39:49;;;;;;;26.02;21.70;;;;;;;14.94;73.26;97939.31;1684292;85;21061;-44
2022/09/28 03:42:16;;;;;;;30.32;23.22;;;;;;;14.97;73.24;97940.59;1709759;83;21020;-44
2022/09/28 03:44:45;;;;;;;31.30;23.27;;;;;;;15.02;73.31;97938.73;1700452;84;21246;-44
2022/09/28 03:47:13;;;;;;;29.80;23.10;;;;;;;15.02;73.42;97933.27;1709706;83;21028;-44
2022/09/28 03:49:39;;;;;;;32.70;24.02;;;;;;;15.02;73.37;97933.27;1700158;84;21144;-44
2022/09/28 03:52:08;;;;;;;25.77;21.23;;;;;;;15.02;73.33;97942.05;1709647;83;21518;-44
2022/09/28 03:54:36;;;;;;;29.42;22.32;;;;;;;15.00;73.32;97939.77;1700039;84;21610;-44
2022/09/28 03:57:03;;;;;;;32.17;22.85;;;;;;;15.04;73.25;97944.55;1709607;83;21001;-44
2022/09/28 03:59:30;;;;;;;30.92;24.05;;;;;;;15.06;73.15;97937.28;1700250;84;21089;-44
2022/09/28 04:01:57;;;;;;;31.07;24.02;;;;;;;15.05;73.25;97943.36;1714366;83;21222;-45
2022/09/28 04:04:25;;;;;;;32.88;24.67;;;;;;;15.02;73.35;97949.65;1691009;84;21541;-44
2022/09/28 04:06:52;;;;;;;30.45;23.12;;;;;;;15.01;73.39;97953.56;1691409;84;21480;-44
2022/09/28 04:09:19;;;;;;;29.42;23.12;;;;;;;15.00;73.41;97949.32;1719957;83;21598;-44
2022/09/28 04:11:47;;;;;;;28.30;22.82;;;;;;;15.04;73.42;97950.01;1714972;83;21525;-45
2022/09/28 04:16:23;;;;;;;30.27;23.75;;;;;;;15.12;73.28;97947.28;1829351;78;22697;-43
2022/09/28 04:18:53;;;;;;;32.80;24.27;;;;;;;15.01;73.35;97957.66;1801634;79;21001;-44
2022/09/28 04:21:39;;;;;;;30.62;23.02;;;;;;;14.99;73.30;97955.97;1802954;79;21264;-44
2022/09/28 04:24:09;;;;;;;34.05;22.37;;;;;;;14.97;73.22;97952.10;1802636;79;21006;-44
2022/09/28 04:26:36;;;;;;;32.93;23.90;;;;;;;15.02;73.29;97940.69;1802829;79;21568;-44
2022/09/28 04:29:16;;;;;;;28.98;23.27;;;;;;;15.05;73.43;97940.63;1802659;79;21585;-44
2022/09/28 04:31:53;;;;;;;30.52;24.30;;;;;;;15.08;73.42;97939.00;1802641;79;21469;-44
2022/09/28 04:34:22;;;;;;;32.10;23.85;;;;;;;15.09;73.44;97935.86;1802115;79;21096;-44
2022/09/28 04:36:50;;;;;;;29.02;22.93;;;;;;;15.12;73.37;97928.18;1797133;79;20951;-44
2022/09/28 04:39:20;;;;;;;29.45;23.12;;;;;;;15.18;73.26;97922.39;1802603;79;21003;-44
2022/09/28 04:41:49;;;;;;;29.98;23.60;;;;;;;15.24;73.04;97925.39;1802539;79;20991;-44
2022/09/28 04:44:16;;;;;;;31.23;24.50;;;;;;;15.23;72.94;97921.13;1802933;79;21014;-44
2022/09/28 04:46:45;;;;;;;33.53;25.27;;;;;;;15.21;72.91;97921.53;1802918;79;21222;-44
2022/09/28 04:49:30;;;;;;;29.48;23.35;;;;;;;15.22;72.88;97929.13;1802598;79;21564;-44
2022/09/28 04:52:05;;;;;;;29.32;22.75;;;;;;;15.18;72.77;97929.22;1802414;79;20958;-44
2022/09/28 04:54:33;;;;;;;28.47;22.42;;;;;;;15.22;72.74;97935.36;1802799;79;21005;-44
2022/09/28 04:57:02;;;;;;;30.68;24.00;;;;;;;15.23;72.82;97930.67;1802785;79;21014;-44
2022/09/28 04:59:29;;;;;;;31.40;24.00;;;;;;;15.25;72.87;97928.89;1802810;79;21165;-44
2022/09/28 05:01:56;;;;;;;27.82;22.77;;;;;;;15.26;72.91;97920.26;1802869;79;20963;-44
2022/09/28 05:04:31;;;;;;;30.37;22.32;;;;;;;15.29;72.71;97920.80;1798279;79;20915;-44
2022/09/28 05:07:05;;;;;;;31.68;23.65;;;;;;;15.33;72.46;97927.53;1757317;79;20967;-44
2022/09/28 05:09:34;;;;;;;31.65;24.72;;;;;;;15.33;72.40;97924.80;1802572;79;21001;-44
2022/09/28 05:12:01;;;;;;;29.87;23.60;;;;;;;15.31;72.42;97920.34;1802908;79;21505;-44
2022/09/28 05:14:29;;;;;;;31.42;23.52;;;;;;;15.29;72.47;97918.66;1801237;79;20955;-44
2022/09/28 05:16:57;;;;;;;28.20;22.93;;;;;;;15.25;72.34;97917.35;1791655;80;20884;-44
2022/09/28 05:19:27;;;;;;;27.05;21.73;;;;;;;15.24;72.35;97928.13;1791530;79;21382;-44
2022/09/28 05:21:56;;;;;;;28.80;22.93;;;;;;;15.29;72.25;97933.08;1791113;79;21654;-44
2022/09/28 05:24:24;;;;;;;29.45;23.10;;;;;;;15.31;72.29;97935.36;1791581;80;21172;-44
2022/09/28 05:26:51;;;;;;;30.00;24.02;;;;;;;15.31;72.41;97931.27;1791257;79;20993;-44
2022/09/28 05:29:20;;;;;;;31.52;24.30;;;;;;;15.30;72.49;97929.13;1791082;80;21060;-44
2022/09/28 05:32:05;;;;;;;28.67;23.12;;;;;;;15.30;72.39;97920.94;1791255;79;21554;-44
2022/09/28 05:34:54;;;;;;;27.58;22.65;;;;;;;15.29;72.26;97918.66;1766096;79;21001;-44
2022/09/28 05:37:22;;;;;;;31.45;23.73;;;;;;;15.33;72.27;97923.44;1791401;79;21496;-44
2022/09/28 05:39:49;;;;;;;27.73;23.35;;;;;;;15.35;72.11;97927.86;1791360;80;21029;-44
2022/09/28 05:42:16;;;;;;;29.20;24.05;;;;;;;15.37;72.03;97926.84;1791251;79;20962;-44
2022/09/28 05:44:43;;;;;;;30.90;23.47;;;;;;;15.37;71.93;97933.67;1791176;80;21320;-44
2022/09/28 05:47:10;;;;;;;27.17;22.02;;;;;;;15.37;71.95;97939.13;1791117;79;20926;-45
2022/09/28 05:49:37;;;;;;;27.85;21.33;;;;;;;15.34;71.87;97939.40;1791287;79;22142;-45
2022/09/28 05:52:03;;;;;;;27.60;22.98;;;;;;;15.41;71.78;97943.91;1791064;79;20938;-44
2022/09/28 05:54:32;;;;;;;28.40;22.98;;;;;;;15.44;71.67;97944.44;1790931;80;21069;-45
2022/09/28 05:57:00;;;;;;;29.82;24.00;;;;;;;15.44;71.71;97952.02;1791267;80;21042;-44
2022/09/28 05:59:29;;;;;;;29.48;23.83;;;;;;;15.44;71.61;97951.27;1790962;79;20990;-44
2022/09/28 06:01:55;;;;;;;28.92;23.02;;;;;;;15.44;71.63;97949.91;1791219;79;21124;-45
2022/09/28 06:04:22;;;;;;;26.52;21.95;;;;;;;15.44;71.56;97941.72;1791123;79;21064;-44
2022/09/28 06:06:49;;;;;;;26.68;21.77;;;;;;;15.50;71.37;97945.45;1791435;80;21519;-45
2022/09/28 06:09:17;;;;;;;27.80;22.82;;;;;;;15.55;71.36;97941.64;1791011;79;21432;-44
2022/09/28 06:11:58;;;;;;;28.70;23.07;;;;;;;15.57;71.38;97939.86;1769627;79;21029;-45
2022/09/28 06:14:41;;;;;;;30.20;23.75;;;;;;;15.60;71.40;97936.27;1790610;79;21197;-44
2022/09/28 06:17:07;;;;;;;29.80;21.40;;;;;;;15.62;71.21;97937.98;1791151;79;21001;-45
2022/09/28 06:19:35;;;;;;;27.02;22.37;;;;;;;15.60;71.06;97939.00;1791374;80;21010;-45
2022/09/28 06:22:19;;;;;;;30.02;22.17;;;;;;;15.64;70.72;97937.72;1735681;82;21092;-44
2022/09/28 06:24:48;;;;;;;29.90;23.85;;;;;;;15.62;70.77;97931.93;1773179;79;21316;-45
2022/09/28 06:27:15;;;;;;;30.70;23.70;;;;;;;15.60;71.08;97930.80;1790890;80;21202;-45
2022/09/28 06:29:42;;;;;;;30.90;24.50;;;;;;;15.60;71.14;97926.70;1791139;79;21021;-44
2022/09/28 06:32:11;;;;;;;29.55;21.75;;;;;;;15.57;70.66;97924.84;1790996;80;20914;-45
2022/09/28 06:34:40;;;;;;;;;;;;;;;15.55;70.76;97917.66;1793677;80;21077;-45
2022/09/28 06:37:08;;;;;;;29.57;22.97;;;;;;;15.59;70.71;97912.87;1791249;79;20130;-45
2022/09/28 06:39:35;;;;;;;27.22;22.07;;;;;;;15.53;70.95;97910.50;1791089;79;21241;-44
2022/09/28 06:42:03;;;;;;;27.90;22.87;;;;;;;15.54;70.86;97912.05;1791179;79;21512;-45
2022/09/28 06:44:31;;;;;;;29.25;23.20;;;;;;;15.56;70.92;97911.77;1787854;80;21017;-45
2022/09/28 06:47:18;;;;;;;26.25;21.80;;;;;;;15.59;70.82;97917.73;1790025;79;21127;-44
2022/09/28 06:50:11;;;;;;;28.00;21.60;;;;;;;15.59;70.86;97910.14;1790363;79;21029;-45
2022/09/28 06:52:37;;;;;;;30.30;22.77;;;;;;;15.64;70.96;97917.82;1726987;79;23469;-45
2022/09/28 06:55:07;;;;;;;30.95;24.72;;;;;;;15.70;71.06;97919.44;1791490;79;21523;-45
2022/09/28 06:57:36;;;;;;;30.70;23.98;;;;;;;15.43;71.01;97871.89;1789756;79;20922;-45
2022/09/28 07:00:04;;;;;;;28.23;21.07;;;;;;;15.73;71.11;97912.55;1791066;79;21009;-44
2022/09/28 07:02:31;;;;;;;24.20;19.90;;;;;;;15.76;70.97;97911.68;1791410;79;21630;-44
2022/09/28 07:05:12;;;;;;;27.22;21.80;;;;;;;15.82;70.81;97913.30;1788476;79;21128;-44
2022/09/28 07:07:53;;;;;;;27.20;22.60;;;;;;;15.86;70.49;97907.91;1766804;80;21556;-44
2022/09/28 07:10:24;;;;;;;31.73;22.98;;;;;;;15.85;70.53;97905.00;1788333;79;20946;-44
2022/09/28 07:13:10;;;;;;;31.45;23.65;;;;;;;15.86;70.60;97903.05;1791014;80;21029;-45
2022/09/28 07:15:42;;;;;;;25.80;21.27;;;;;;;15.82;70.63;97900.41;1793752;79;21053;-45
2022/09/28 07:18:11;;;;;;;25.43;20.77;;;;;;;15.82;70.83;97894.94;1799802;78;21263;-45
2022/09/28 07:20:40;;;;;;;28.30;22.13;;;;;;;15.87;70.81;97890.92;1799575;79;20969;-45
2022/09/28 07:23:07;;;;;;;27.42;21.93;;;;;;;15.89;70.60;97887.14;1799504;79;20953;-45
2022/09/28 07:25:37;;;;;;;33.55;22.80;;;;;;;15.87;70.57;97889.55;1799114;78;21072;-44
2022/09/28 07:28:08;;;;;;;25.88;20.65;;;;;;;15.83;70.50;97882.80;1797604;79;21025;-45
2022/09/28 07:30:41;;;;;;;23.57;19.87;;;;;;;15.78;70.63;97881.95;1799035;78;21235;-45
2022/09/28 07:33:13;;;;;;;23.98;18.87;;;;;;;15.79;70.47;97880.75;1799151;79;21018;-44
2022/09/28 07:35:54;;;;;;;21.87;18.90;;;;;;;15.83;70.57;97884.78;1793681;79;21009;-44
2022/09/28 07:38:24;;;;;;;;;;;;;;;15.86;70.83;97888.78;1786394;80;21377;-44
2022/09/28 07:41:10;;;;;;;25.97;19.35;;;;;;;15.88;70.84;97897.30;1783837;80;20150;-44
2022/09/28 07:43:40;;;;;;;24.63;19.27;;;;;;;15.81;70.79;97897.50;1783652;80;21521;-44
2022/09/28 07:46:10;;;;;;;25.90;18.30;;;;;;;15.80;70.42;97895.95;1784162;80;20994;-44
2022/09/28 07:48:41;;;;;;;22.93;18.37;;;;;;;15.83;70.42;97895.71;1783889;79;20931;-44
2022/09/28 07:51:18;;;;;;;23.92;17.98;;;;;;;15.87;70.31;97898.52;1745165;80;20943;-44
2022/09/28 07:53:46;;;;;;;23.60;19.87;;;;;;;15.91;70.35;97899.19;1782692;80;21015;-44
2022/09/28 07:56:33;;;;;;;25.00;19.92;;;;;;;15.94;70.40;97902.42;1783935;80;21863;-44
2022/09/28 07:59:02;;;;;;;26.27;19.73;;;;;;;15.95;70.45;97902.59;1760230;80;20998;-44
2022/09/28 08:01:35;;;;;;;24.12;19.10;;;;;;;15.98;70.43;97899.59;1783864;80;20923;-45
2022/09/28 08:04:02;;;;;;;23.60;18.77;;;;;;;16.03;70.33;97906.67;1784108;80;20998;-44
2022/09/28 08:06:29;;;;;;;24.87;19.98;;;;;;;16.11;70.04;97901.80;1784027;79;21005;-45
2022/09/28 08:09:00;;;;;;;26.20;20.00;;;;;;;16.18;70.00;97904.92;1783978;80;21225;-44
2022/09/28 08:11:28;;;;;;;24.95;19.85;;;;;;;16.18;69.78;97898.86;1780925;80;20972;-45
2022/09/28 08:14:04;;;;;;;25.23;20.65;;;;;;;16.17;69.81;97895.20;1782733;80;20927;-45
2022/09/28 08:16:39;;;;;;;22.77;18.60;;;;;;;16.16;69.94;97890.94;1781401;79;20974;-45
2022/09/28 08:19:09;;;;;;;24.02;19.62;;;;;;;16.18;70.12;97893.98;1782840;80;21042;-45
2022/09/28 08:21:46;;;;;;;25.37;19.98;;;;;;;16.24;69.89;97896.38;1783854;80;21217;-44
2022/09/28 08:24:15;;;;;;;29.65;20.25;;;;;;;16.29;69.55;97897.98;1783621;80;21651;-44
2022/09/28 08:26:43;;;;;;;25.17;20.10;;;;;;;16.31;69.34;97896.19;1784118;80;20876;-44
2022/09/28 08:29:11;;;;;;;27.10;21.33;;;;;;;16.32;69.38;97900.44;1783735;80;21015;-44
2022/09/28 08:31:40;;;;;;;25.45;19.60;;;;;;;16.31;69.40;97896.95;1779134;80;21058;-44
2022/09/28 08:34:09;;;;;;;24.90;19.42;;;;;;;16.36;69.39;97898.39;1781689;80;23117;-44
2022/09/28 08:36:49;;;;;;;26.77;21.25;;;;;;;16.44;69.24;97896.98;1730705;80;21562;-44
2022/09/28 08:39:27;;;;;;;27.90;22.00;;;;;;;16.56;69.27;97890.77;1757109;80;21000;-44
2022/09/28 08:42:16;;;;;;;27.42;21.45;;;;;;;16.66;69.32;97896.56;1763723;80;21611;-44
2022/09/28 08:45:10;;;;;;;29.02;21.20;;;;;;;16.76;68.91;97894.72;1783916;80;21003;-44
2022/09/28 08:51:23;;;;;;;28.27;21.07;;;;;;;16.89;68.47;97892.16;1782045;80;20987;-44
2022/09/28 08:54:30;;;;;;;26.12;20.32;;;;;;;16.98;67.61;97890.76;1782700;80;21002;-44
2022/09/28 08:57:04;;;;;;;31.82;21.77;;;;;;;16.96;67.26;97885.71;1772562;80;21030;-44
2022/09/28 08:59:50;;;;;;;28.42;21.82;;;;;;;16.97;67.40;97882.37;1783733;79;21070;-44
2022/09/28 09:02:26;;;;;;;25.72;21.17;;;;;;;16.98;67.57;97888.02;1783263;80;21356;-44
2022/09/28 09:04:55;;;;;;;25.82;21.23;;;;;;;16.97;67.74;97890.59;1783289;80;21027;-45
2022/09/28 09:07:58;;;;;;;25.88;20.35;;;;;;;17.00;67.50;97880.89;1764867;80;20990;-44
2022/09/28 09:11:01;;;;;;;26.52;21.07;;;;;;;17.05;67.20;97879.58;1783857;79;28810;-44
2022/09/28 09:14:07;;;;;;;25.48;21.20;;;;;;;17.06;67.03;97887.95;1783441;80;21019;-44
2022/09/28 09:17:04;;;;;;;27.65;21.20;;;;;;;17.00;67.30;97894.58;1780931;79;22020;-44
2022/09/28 09:20:07;;;;;;;26.42;20.90;;;;;;;16.96;67.30;97893.92;1757085;80;21011;-44
2022/09/28 09:23:00;;;;;;;25.80;19.92;;;;;;;16.91;67.37;97894.47;1778022;79;21038;-44
2022/09/28 09:25:48;;;;;;;24.35;19.27;;;;;;;16.86;67.41;97893.04;1767345;80;21007;-44
2022/09/28 09:28:37;;;;;;;;;;;;;;;16.92;67.53;97886.42;1781028;80;21070;-44
2022/09/28 09:31:46;;;;;;;26.15;19.67;;;;;;;16.98;67.51;97888.02;1778302;80;23105;-44
2022/09/28 09:34:42;;;;;;;24.50;19.52;;;;;;;16.93;67.47;97883.26;1778287;79;20989;-45
2022/09/28 09:37:28;;;;;;;24.32;19.32;;;;;;;17.02;67.36;97885.94;1727318;79;21035;-44
2022/09/28 09:41:00;;;;;;;21.65;17.92;;;;;;;17.08;67.22;97888.30;1711442;79;21023;-44
2022/09/28 09:43:37;;;;;;;23.22;18.42;;;;;;;17.18;67.16;97889.34;1735120;80;21066;-44
2022/09/28 09:46:38;;;;;;;22.02;18.42;;;;;;;17.32;66.91;97886.75;1742253;80;21105;-44
2022/09/28 09:49:39;;;;;;;22.62;18.55;;;;;;;17.44;67.00;97878.34;1778261;79;21492;-44
2022/09/28 09:52:20;;;;;;;20.08;15.70;;;;;;;17.58;66.90;97874.53;1777892;79;20990;-44
2022/09/28 09:54:58;;;;;;;19.92;16.27;;;;;;;17.71;65.97;97872.58;1778564;80;21584;-44
2022/09/28 09:57:35;;;;;;;20.48;18.15;;;;;;;17.79;65.41;97877.98;1778435;79;21070;-44
2022/09/28 10:00:13;;;;;;;16.37;14.55;;;;;;;17.85;64.92;97876.81;1772945;80;21241;-45
2022/09/28 10:02:47;;;;;;;18.57;15.63;;;;;;;17.91;65.01;97874.28;1778492;80;20908;-44
2022/09/28 10:05:24;;;;;;;20.02;15.68;;;;;;;17.95;64.55;97879.80;1776736;79;26539;-44
2022/09/28 10:08:14;;;;;;;18.37;15.23;;;;;;;17.96;65.26;97880.56;1778489;80;21633;-45
2022/09/28 10:10:53;;;;;;;29.72;17.00;;;;;;;18.02;64.93;97874.66;1778367;80;21074;-45
2022/09/28 10:13:22;;;;;;;22.55;14.83;;;;;;;17.99;63.40;97877.69;1778808;80;21545;-44
2022/09/28 10:15:50;;;;;;;65.85;20.27;;;;;;;17.93;63.25;97882.20;1778301;80;20955;-44
2022/09/28 10:18:25;;;;;;;36.00;18.32;;;;;;;17.88;62.93;97894.34;1777210;79;21022;-44
2022/09/28 10:21:14;;;;;;;18.67;15.48;;;;;;;17.75;63.50;97897.13;1778142;80;21604;-44
2022/09/28 10:23:44;;;;;;;16.67;14.93;;;;;;;17.69;64.00;97895.55;1778046;79;20991;-45
2022/09/28 10:26:23;;;;;;;18.85;14.40;;;;;;;17.68;64.65;97894.00;1778418;79;22196;-45
2022/09/28 10:28:58;;;;;;;17.65;14.55;;;;;;;17.67;64.83;97889.72;1777339;80;21002;-44
2022/09/28 10:31:43;;;;;;;15.65;13.93;;;;;;;17.64;64.80;97890.62;1778556;80;21521;-45
2022/09/28 10:34:15;;;;;;;18.23;14.13;;;;;;;17.62;64.81;97890.91;1777047;79;21478;-44
2022/09/28 10:37:02;;;;;;;16.00;14.15;;;;;;;17.58;64.45;97886.09;1767960;80;21097;-45
2022/09/28 10:39:52;;;;;;;17.55;14.00;;;;;;;17.57;64.58;97873.63;1778262;79;21494;-44
2022/09/28 10:42:29;;;;;;;16.27;13.05;;;;;;;17.57;64.16;97875.73;1778640;80;20951;-44
2022/09/28 10:45:23;;;;;;;16.15;12.95;;;;;;;17.63;63.84;97877.34;1778329;79;20972;-44
2022/09/28 10:47:52;;;;;;;14.38;11.93;;;;;;;17.66;62.82;97875.11;1778382;79;20983;-44
2022/09/28 10:50:25;;;;;;;25.77;14.77;;;;;;;17.61;63.41;97871.56;1778550;79;21489;-44
2022/09/28 10:52:57;;;;;;;24.15;15.72;;;;;;;17.63;63.54;97870.50;1778113;79;21179;-44
2022/09/28 10:55:38;;;;;;;15.65;13.22;;;;;;;17.64;63.70;97876.15;1698561;80;21003;-44
2022/09/28 10:58:38;;;;;;;27.27;14.50;;;;;;;17.61;63.40;97883.30;1778198;80;21003;-44
2022/09/28 11:01:10;;;;;;;17.10;13.20;;;;;;;17.61;63.42;97879.18;1778357;79;21761;-44
2022/09/28 11:03:54;;;;;;;15.38;13.05;;;;;;;17.56;63.87;97884.42;1778673;80;21624;-44
2022/09/28 11:06:28;;;;;;;16.75;13.80;;;;;;;17.51;64.16;97885.74;1778366;79;21300;-44
2022/09/28 11:09:08;;;;;;;15.05;13.45;;;;;;;17.57;64.57;97885.95;1778133;79;21155;-44
2022/09/28 11:11:41;;;;;;;15.50;13.10;;;;;;;17.64;64.62;97885.14;1777585;79;21043;-44
2022/09/28 11:14:36;;;;;;;18.55;15.18;;;;;;;17.64;64.41;97881.02;1767546;80;20905;-44
2022/09/28 11:17:26;;;;;;;16.45;14.73;;;;;;;17.63;63.81;97881.45;1778389;80;21022;-45
2022/09/28 11:19:56;;;;;;;34.13;18.10;;;;;;;17.59;64.02;97882.95;1767624;80;21224;-44
2022/09/28 11:22:35;;;;;;;17.82;15.03;;;;;;;17.55;64.22;97888.36;1778413;79;21010;-44
2022/09/28 11:25:21;;;;;;;16.30;14.10;;;;;;;17.47;64.00;97878.25;1778249;79;21011;-44
2022/09/28 11:27:56;;;;;;;15.23;13.22;;;;;;;17.38;64.72;97879.50;1778678;79;21026;-44
2022/09/28 11:30:28;;;;;;;20.52;15.30;;;;;;;17.39;65.08;97875.55;1778169;79;21025;-44
2022/09/28 11:33:13;;;;;;;;;;;;;;;17.41;65.50;97877.86;1785543;79;21227;-45
2022/09/28 11:36:17;;;;;;;17.95;14.10;;;;;;;17.44;65.71;97876.97;1790908;80;20126;-45
2022/09/28 11:38:53;;;;;;;17.52;13.35;;;;;;;17.32;65.83;97880.68;1790986;80;21009;-45
2022/09/28 11:41:51;;;;;;;15.65;12.88;;;;;;;17.29;65.62;97873.32;1789690;79;21073;-44
2022/09/28 11:44:47;;;;;;;13.70;12.07;;;;;;;17.24;65.94;97875.23;1790949;80;21013;-44
2022/09/28 11:47:27;;;;;;;14.90;12.18;;;;;;;17.28;66.50;97877.89;1791014;79;21216;-44
2022/09/28 11:50:02;;;;;;;15.40;12.13;;;;;;;17.37;66.26;97871.14;1791367;79;21045;-44
2022/09/28 11:53:10;;;;;;;14.30;12.80;;;;;;;17.41;66.14;97871.02;1776169;80;21009;-44
2022/09/28 11:55:46;;;;;;;18.05;14.53;;;;;;;17.41;66.00;97875.13;1774498;79;21091;-44
2022/09/28 11:58:27;;;;;;;22.13;15.68;;;;;;;17.27;65.92;97887.30;1774803;79;20973;-45
2022/09/28 12:01:00;;;;;;;16.60;13.50;;;;;;;17.14;67.24;97887.30;1774772;80;21103;-45
2022/09/28 12:03:42;;;;;;;20.25;14.73;;;;;;;16.97;68.38;97892.73;1772907;80;21258;-45